createdAt,value
2016-07-03T00:00:17.130Z,1012.72
2016-07-03T00:01:17.151Z,1012.64
2016-07-03T00:02:17.179Z,1012.65
2016-07-03T00:03:17.203Z,1012.63
2016-07-03T00:04:17.227Z,1012.6
2016-07-03T00:05:17.254Z,1012.61
2016-07-03T00:06:17.279Z,1012.61
2016-07-03T00:07:17.304Z,1012.62
2016-07-03T00:08:17.327Z,1012.61
2016-07-03T00:09:17.354Z,1012.66
2016-07-03T00:10:17.378Z,1012.65
2016-07-03T00:12:17.427Z,1012.64
2016-07-03T00:13:17.452Z,1012.69
2016-07-03T00:14:17.478Z,1012.67
2016-07-03T00:15:17.502Z,1012.71
2016-07-03T00:16:17.528Z,1012.71
2016-07-03T00:17:17.551Z,1012.72
2016-07-03T00:18:17.576Z,1012.7
2016-07-03T00:19:17.601Z,1012.73
2016-07-03T00:20:17.625Z,1012.74
2016-07-03T00:21:17.655Z,1012.75
2016-07-03T00:22:17.684Z,1012.79
2016-07-03T00:23:17.702Z,1012.79
2016-07-03T00:24:17.729Z,1012.77
2016-07-03T00:25:17.752Z,1012.83
2016-07-03T00:26:17.775Z,1012.82
2016-07-03T00:28:17.827Z,1012.84
2016-07-03T00:29:17.852Z,1012.84
2016-07-03T00:30:17.882Z,1012.84
2016-07-03T00:31:17.905Z,1012.84
2016-07-03T00:32:17.929Z,1012.88
2016-07-03T00:33:17.957Z,1012.85
2016-07-03T00:34:17.978Z,1012.93
2016-07-03T00:35:18.003Z,1012.89
2016-07-03T00:36:18.028Z,1012.89
2016-07-03T00:37:18.054Z,1012.9
2016-07-03T00:38:18.083Z,1012.92
2016-07-03T00:39:18.103Z,1012.88
2016-07-03T00:40:18.128Z,1012.92
2016-07-03T00:41:18.153Z,1012.89
2016-07-03T00:42:18.175Z,1012.88
2016-07-03T00:44:18.230Z,1012.94
2016-07-03T00:45:18.256Z,1012.92
2016-07-03T00:46:18.279Z,1012.88
2016-07-03T00:47:18.303Z,1012.92
2016-07-03T00:48:18.329Z,1012.94
2016-07-03T00:49:18.352Z,1012.93
2016-07-03T00:50:18.379Z,1012.93
2016-07-03T00:51:18.404Z,1012.95
2016-07-03T00:52:18.427Z,1013
2016-07-03T00:53:18.454Z,1012.94
2016-07-03T00:54:18.479Z,1012.97
2016-07-03T00:55:18.502Z,1012.96
2016-07-03T00:56:18.526Z,1012.95
2016-07-03T00:57:18.554Z,1012.96
2016-07-03T00:59:18.602Z,1013.02
2016-07-03T01:00:18.627Z,1013.02
2016-07-03T01:01:18.651Z,1013.02
2016-07-03T01:02:18.675Z,1013
2016-07-03T01:03:18.701Z,1013.03
2016-07-03T01:04:18.725Z,1013.03
2016-07-03T01:05:18.753Z,1013.05
2016-07-03T01:06:18.777Z,1013.09
2016-07-03T01:07:18.801Z,1013.02
2016-07-03T01:08:18.824Z,1012.96
2016-07-03T01:09:18.849Z,1013.01
2016-07-03T01:10:18.876Z,1013.03
2016-07-03T01:11:18.900Z,1013.1
2016-07-03T01:12:18.928Z,1013.1
2016-07-03T01:13:18.948Z,1013.1
2016-07-03T01:14:18.970Z,1013.05
2016-07-03T01:15:18.997Z,1013.14
2016-07-03T01:16:19.021Z,1013.03
2016-07-03T01:17:19.047Z,1013.06
2016-07-03T01:18:19.069Z,1013.16
2016-07-03T01:19:19.098Z,1013.12
2016-07-03T01:20:19.121Z,1013.11
2016-07-03T01:21:19.148Z,1013.11
2016-07-03T01:22:19.170Z,1013.11
2016-07-03T01:23:19.197Z,1013.14
2016-07-03T01:24:19.219Z,1013.12
2016-07-03T01:25:19.245Z,1013.09
2016-07-03T01:26:19.268Z,1013.14
2016-07-03T01:27:19.296Z,1013.16
2016-07-03T01:28:19.320Z,1013.14
2016-07-03T01:29:19.342Z,1013.14
2016-07-03T01:31:19.403Z,1013.14
2016-07-03T01:32:19.417Z,1013.13
2016-07-03T01:33:19.438Z,1013.15
2016-07-03T01:34:19.462Z,1013.15
2016-07-03T01:35:19.490Z,1013.18
2016-07-03T01:36:19.515Z,1013.15
2016-07-03T01:37:19.538Z,1013.13
2016-07-03T01:38:19.565Z,1013.16
2016-07-03T01:39:19.586Z,1013.19
2016-07-03T01:40:19.612Z,1013.21
2016-07-03T01:41:19.639Z,1013.2
2016-07-03T01:42:19.664Z,1013.18
2016-07-03T01:43:19.688Z,1013.25
2016-07-03T01:44:19.711Z,1013.21
2016-07-03T01:45:19.735Z,1013.26
2016-07-03T01:47:19.785Z,1013.25
2016-07-03T01:48:19.811Z,1013.27
2016-07-03T01:49:19.836Z,1013.25
2016-07-03T01:50:19.861Z,1013.25
2016-07-03T01:51:19.889Z,1013.2
2016-07-03T01:52:19.908Z,1013.26
2016-07-03T01:53:19.934Z,1013.23
2016-07-03T01:54:19.955Z,1013.26
2016-07-03T01:55:19.979Z,1013.28
2016-07-03T01:56:20.004Z,1013.27
2016-07-03T01:57:20.031Z,1013.28
2016-07-03T01:58:20.054Z,1013.32
2016-07-03T01:59:20.077Z,1013.28
2016-07-03T02:00:20.105Z,1013.28
2016-07-03T02:01:20.131Z,1013.32
2016-07-03T02:03:20.183Z,1013.33
2016-07-03T02:04:20.204Z,1013.36
2016-07-03T02:05:20.227Z,1013.39
2016-07-03T02:06:20.252Z,1013.4
2016-07-03T02:07:20.279Z,1013.39
2016-07-03T02:08:20.302Z,1013.41
2016-07-03T02:09:20.327Z,1013.43
2016-07-03T02:10:20.351Z,1013.43
2016-07-03T02:11:20.375Z,1013.42
2016-07-03T02:12:20.403Z,1013.42
2016-07-03T02:13:20.424Z,1013.47
2016-07-03T02:14:20.451Z,1013.45
2016-07-03T02:15:20.476Z,1013.46
2016-07-03T02:16:20.499Z,1013.46
2016-07-03T02:17:20.525Z,1013.48
2016-07-03T02:19:20.573Z,1013.49
2016-07-03T02:20:20.600Z,1013.51
2016-07-03T02:21:20.620Z,1013.56
2016-07-03T02:22:20.647Z,1013.53
2016-07-03T02:23:20.671Z,1013.54
2016-07-03T02:24:20.695Z,1013.47
2016-07-03T02:25:20.722Z,1013.54
2016-07-03T02:26:20.746Z,1013.53
2016-07-03T02:27:20.769Z,1013.52
2016-07-03T02:28:20.793Z,1013.51
2016-07-03T02:29:20.818Z,1013.5
2016-07-03T02:30:20.842Z,1013.52
2016-07-03T02:31:20.867Z,1013.51
2016-07-03T02:32:20.895Z,1013.53
2016-07-03T02:34:20.944Z,1013.48
2016-07-03T02:35:20.968Z,1013.5
2016-07-03T02:36:20.993Z,1013.46
2016-07-03T02:37:21.018Z,1013.43
2016-07-03T02:38:21.039Z,1013.48
2016-07-03T02:39:21.062Z,1013.49
2016-07-03T02:40:21.087Z,1013.47
2016-07-03T02:41:21.111Z,1013.52
2016-07-03T02:42:21.136Z,1013.46
2016-07-03T02:43:21.165Z,1013.51
2016-07-03T02:44:21.187Z,1013.51
2016-07-03T02:45:21.211Z,1013.52
2016-07-03T02:46:21.236Z,1013.54
2016-07-03T02:47:21.264Z,1013.5
2016-07-03T02:48:21.284Z,1013.52
2016-07-03T02:49:21.310Z,1013.54
2016-07-03T02:50:21.332Z,1013.56
2016-07-03T02:51:21.358Z,1013.58
2016-07-03T02:52:21.382Z,1013.55
2016-07-03T02:53:21.407Z,1013.61
2016-07-03T02:54:21.430Z,1013.62
2016-07-03T02:55:21.456Z,1013.64
2016-07-03T02:56:21.479Z,1013.66
2016-07-03T02:57:21.504Z,1013.69
2016-07-03T02:58:21.529Z,1013.68
2016-07-03T02:59:21.551Z,1013.7
2016-07-03T03:00:21.577Z,1013.71
2016-07-03T03:01:21.600Z,1013.72
2016-07-03T03:02:21.625Z,1013.69
2016-07-03T03:03:21.650Z,1013.66
2016-07-03T03:04:21.674Z,1013.69
2016-07-03T03:06:21.725Z,1013.69
2016-07-03T03:07:21.747Z,1013.65
2016-07-03T03:08:21.773Z,1013.71
2016-07-03T03:09:21.795Z,1013.73
2016-07-03T03:10:21.820Z,1013.74
2016-07-03T03:11:21.844Z,1013.73
2016-07-03T03:12:21.868Z,1013.73
2016-07-03T03:13:21.893Z,1013.77
2016-07-03T03:14:21.916Z,1013.76
2016-07-03T03:15:21.943Z,1013.77
2016-07-03T03:16:21.966Z,1013.76
2016-07-03T03:17:21.992Z,1013.77
2016-07-03T03:18:22.013Z,1013.8
2016-07-03T03:19:22.040Z,1013.77
2016-07-03T03:20:22.066Z,1013.79
2016-07-03T03:22:22.115Z,1013.81
2016-07-03T03:23:22.138Z,1013.79
2016-07-03T03:24:22.161Z,1013.81
2016-07-03T03:25:22.185Z,1013.84
2016-07-03T03:26:22.207Z,1013.85
2016-07-03T03:27:22.236Z,1013.85
2016-07-03T03:28:22.261Z,1013.84
2016-07-03T03:29:22.283Z,1013.82
2016-07-03T03:30:22.310Z,1013.83
2016-07-03T03:31:22.328Z,1013.86
2016-07-03T03:32:22.356Z,1013.84
2016-07-03T03:33:22.380Z,1013.88
2016-07-03T03:34:22.407Z,1013.9
2016-07-03T03:35:22.429Z,1013.9
2016-07-03T03:36:22.455Z,1013.88
2016-07-03T03:38:22.508Z,1013.84
2016-07-03T03:39:22.526Z,1013.86
2016-07-03T03:40:22.549Z,1013.89
2016-07-03T03:41:22.572Z,1013.92
2016-07-03T03:42:22.598Z,1013.86
2016-07-03T03:43:22.623Z,1013.84
2016-07-03T03:44:22.647Z,1013.83
2016-07-03T03:45:22.675Z,1013.86
2016-07-03T03:46:22.699Z,1013.87
2016-07-03T03:47:22.730Z,1013.87
2016-07-03T03:48:22.747Z,1013.91
2016-07-03T03:49:22.771Z,1013.91
2016-07-03T03:50:22.793Z,1013.92
2016-07-03T03:51:22.822Z,1013.91
2016-07-03T03:52:22.845Z,1013.94
2016-07-03T03:54:22.895Z,1013.97
2016-07-03T03:55:22.918Z,1013.94
2016-07-03T03:56:22.943Z,1013.96
2016-07-03T03:57:22.969Z,1013.98
2016-07-03T03:58:22.993Z,1013.98
2016-07-03T03:59:23.015Z,1013.97
2016-07-03T04:00:23.039Z,1013.98
2016-07-03T04:01:23.067Z,1014.01
2016-07-03T04:02:23.089Z,1013.97
2016-07-03T04:03:23.111Z,1014.02
2016-07-03T04:04:23.138Z,1013.98
2016-07-03T04:05:23.163Z,1013.96
2016-07-03T04:06:23.189Z,1013.96
2016-07-03T04:07:23.213Z,1013.97
2016-07-03T04:09:23.262Z,1013.94
2016-07-03T04:10:23.286Z,1013.97
2016-07-03T04:11:23.308Z,1013.98
2016-07-03T04:12:23.335Z,1013.98
2016-07-03T04:13:23.362Z,1014.08
2016-07-03T04:14:23.384Z,1014.28
2016-07-03T04:15:23.411Z,1014.54
2016-07-03T04:16:23.434Z,1014.55
2016-07-03T04:17:23.455Z,1014.53
2016-07-03T04:18:23.484Z,1014.58
2016-07-03T04:19:23.508Z,1014.64
2016-07-03T04:20:23.535Z,1014.66
2016-07-03T04:21:23.557Z,1014.71
2016-07-03T04:22:23.586Z,1014.72
2016-07-03T04:23:23.611Z,1014.74
2016-07-03T04:24:23.639Z,1014.71
2016-07-03T04:25:23.663Z,1014.75
2016-07-03T04:26:23.691Z,1014.77
2016-07-03T04:27:23.717Z,1014.81
2016-07-03T04:28:23.743Z,1014.83
2016-07-03T04:29:23.773Z,1014.84
2016-07-03T04:30:23.800Z,1014.82
2016-07-03T04:31:23.827Z,1014.85
2016-07-03T04:32:23.853Z,1014.85
2016-07-03T04:33:23.880Z,1014.86
2016-07-03T04:34:23.910Z,1014.87
2016-07-03T04:35:23.942Z,1014.87
2016-07-03T04:36:23.967Z,1014.9
2016-07-03T04:37:23.996Z,1014.89
2016-07-03T04:38:24.022Z,1014.92
2016-07-03T04:39:24.052Z,1014.89
2016-07-03T04:41:24.113Z,1014.87
2016-07-03T04:42:24.145Z,1014.9
2016-07-03T04:43:24.173Z,1014.89
2016-07-03T04:44:24.201Z,1014.91
2016-07-03T04:45:24.235Z,1014.94
2016-07-03T04:46:24.262Z,1014.93
2016-07-03T04:47:24.294Z,1014.95
2016-07-03T04:48:24.324Z,1014.96
2016-07-03T04:49:24.353Z,1014.98
2016-07-03T04:50:24.382Z,1015.03
2016-07-03T04:51:24.416Z,1015.01
2016-07-03T04:52:24.446Z,1015.01
2016-07-03T04:53:24.477Z,1014.98
2016-07-03T04:54:24.506Z,1014.97
2016-07-03T04:55:24.536Z,1015.01
2016-07-03T04:57:24.600Z,1015.07
2016-07-03T04:58:24.630Z,1015.06
2016-07-03T04:59:24.660Z,1015.08
2016-07-03T05:00:24.693Z,1015.07
2016-07-03T05:01:24.727Z,1015.13
2016-07-03T05:02:24.761Z,1015.15
2016-07-03T05:03:24.787Z,1015.14
2016-07-03T05:04:24.817Z,1015.15
2016-07-03T05:05:24.851Z,1015.14
2016-07-03T05:06:24.880Z,1015.08
2016-07-03T05:07:24.915Z,1015.08
2016-07-03T05:08:24.942Z,1015.08
2016-07-03T05:09:24.979Z,1015.05
2016-07-03T05:10:25.011Z,1015.02
2016-07-03T05:11:25.040Z,1015.05
2016-07-03T05:13:25.104Z,1015.06
2016-07-03T05:14:25.139Z,1015.06
2016-07-03T05:15:25.171Z,1015.08
2016-07-03T05:16:25.202Z,1015.07
2016-07-03T05:17:25.237Z,1015.03
2016-07-03T05:18:25.269Z,1015.06
2016-07-03T05:19:25.303Z,1015.07
2016-07-03T05:20:25.335Z,1015.12
2016-07-03T05:21:25.369Z,1015.07
2016-07-03T05:22:25.402Z,1015.06
2016-07-03T05:23:25.438Z,1015.08
2016-07-03T05:24:25.468Z,1015.09
2016-07-03T05:25:25.503Z,1015.04
2016-07-03T05:26:25.538Z,1015.02
2016-07-03T05:27:25.571Z,1015.01
2016-07-03T05:29:25.639Z,1015.03
2016-07-03T05:30:25.673Z,1015.03
2016-07-03T05:31:25.705Z,1015.02
2016-07-03T05:32:25.739Z,1015.04
2016-07-03T05:33:25.776Z,1015.06
2016-07-03T05:34:25.806Z,1015.1
2016-07-03T05:35:25.842Z,1015.11
2016-07-03T05:36:25.878Z,1015.14
2016-07-03T05:37:25.911Z,1015.17
2016-07-03T05:38:25.944Z,1015.16
2016-07-03T05:39:25.978Z,1015.2
2016-07-03T05:40:26.013Z,1015.23
2016-07-03T05:41:26.048Z,1015.26
2016-07-03T05:42:26.084Z,1015.29
2016-07-03T05:44:26.155Z,1015.33
2016-07-03T05:45:26.189Z,1015.37
2016-07-03T05:46:26.222Z,1015.37
2016-07-03T05:47:26.263Z,1015.46
2016-07-03T05:48:26.294Z,1015.46
2016-07-03T05:49:26.328Z,1015.52
2016-07-03T05:50:26.364Z,1015.56
2016-07-03T05:51:26.396Z,1015.55
2016-07-03T05:52:26.432Z,1015.6
2016-07-03T05:53:26.467Z,1015.61
2016-07-03T05:54:26.502Z,1015.64
2016-07-03T05:55:26.540Z,1015.61
2016-07-03T05:56:26.575Z,1015.65
2016-07-03T05:57:26.660Z,1015.63
2016-07-03T05:58:26.646Z,1015.64
2016-07-03T05:59:26.680Z,1015.63
2016-07-03T06:00:26.714Z,1015.57
2016-07-03T06:01:26.750Z,1015.59
2016-07-03T06:02:26.787Z,1015.59
2016-07-03T06:03:26.824Z,1015.59
2016-07-03T06:04:26.861Z,1015.55
2016-07-03T06:05:26.895Z,1015.54
2016-07-03T06:06:26.932Z,1015.59
2016-07-03T06:07:26.967Z,1015.57
2016-07-03T06:08:27.004Z,1015.62
2016-07-03T06:09:27.040Z,1015.62
2016-07-03T06:10:27.077Z,1015.65
2016-07-03T06:11:27.112Z,1015.62
2016-07-03T06:12:27.149Z,1015.64
2016-07-03T06:13:27.185Z,1015.65
2016-07-03T06:14:27.222Z,1015.62
2016-07-03T06:16:27.297Z,1015.67
2016-07-03T06:17:27.332Z,1015.65
2016-07-03T06:18:27.367Z,1015.63
2016-07-03T06:19:27.403Z,1015.7
2016-07-03T06:20:27.440Z,1015.67
2016-07-03T06:21:27.477Z,1015.72
2016-07-03T06:22:27.513Z,1015.71
2016-07-03T06:23:27.553Z,1015.67
2016-07-03T06:24:27.590Z,1015.7
2016-07-03T06:25:27.623Z,1015.61
2016-07-03T06:26:27.660Z,1015.56
2016-07-03T06:27:27.697Z,1015.63
2016-07-03T06:28:27.734Z,1015.62
2016-07-03T06:29:27.772Z,1015.59
2016-07-03T06:30:27.809Z,1015.62
2016-07-03T06:32:27.881Z,1015.61
2016-07-03T06:33:27.917Z,1015.59
2016-07-03T06:34:27.959Z,1015.6
2016-07-03T06:35:27.991Z,1015.61
2016-07-03T06:36:28.029Z,1015.6
2016-07-03T06:37:28.065Z,1015.62
2016-07-03T06:38:28.101Z,1015.64
2016-07-03T06:39:28.139Z,1015.65
2016-07-03T06:40:28.176Z,1015.73
2016-07-03T06:41:28.212Z,1015.96
2016-07-03T06:42:28.247Z,1016.15
2016-07-03T06:43:28.286Z,1016.19
2016-07-03T06:44:28.322Z,1016.11
2016-07-03T06:45:28.359Z,1016.12
2016-07-03T06:46:28.395Z,1016.15
2016-07-03T06:48:28.469Z,1016.12
2016-07-03T06:49:28.508Z,1016.12
2016-07-03T06:50:28.541Z,1016.09
2016-07-03T06:51:28.580Z,1016.06
2016-07-03T06:52:28.616Z,1016.07
2016-07-03T06:53:28.655Z,1016.05
2016-07-03T06:54:28.692Z,1016
2016-07-03T06:55:28.727Z,1016.07
2016-07-03T06:56:28.765Z,1016.1
2016-07-03T06:57:28.803Z,1015.96
2016-07-03T06:58:28.839Z,1015.85
2016-07-03T06:59:28.876Z,1016.05
2016-07-03T07:00:28.913Z,1015.75
2016-07-03T07:01:28.951Z,1016.06
2016-07-03T07:02:28.986Z,1016.13
2016-07-03T07:04:29.064Z,1016.17
2016-07-03T07:05:29.098Z,1016.2
2016-07-03T07:06:29.134Z,1016.26
2016-07-03T07:07:29.173Z,1015.57
2016-07-03T07:08:29.209Z,1015.06
2016-07-03T07:09:29.247Z,1016.38
2016-07-03T07:10:29.285Z,1015.43
2016-07-03T07:11:29.321Z,1016.33
2016-07-03T07:12:29.359Z,1016.39
2016-07-03T07:13:29.394Z,1016.38
2016-07-03T07:14:29.432Z,1016.34
2016-07-03T07:15:29.463Z,1016.37
2016-07-03T07:16:29.505Z,1016.4
2016-07-03T07:17:29.540Z,1016.46
2016-07-03T07:19:29.613Z,1015.33
2016-07-03T07:20:29.650Z,1016.58
2016-07-03T07:21:29.687Z,1016.62
2016-07-03T07:22:29.725Z,1016.69
2016-07-03T07:23:29.762Z,1016.77
2016-07-03T07:24:29.795Z,1016.82
2016-07-03T07:25:29.832Z,1016.88
2016-07-03T07:26:29.870Z,1016.98
2016-07-03T07:27:29.908Z,1016.97
2016-07-03T07:28:29.942Z,1016.96
2016-07-03T07:29:29.976Z,1016.91
2016-07-03T07:30:30.016Z,1017
2016-07-03T07:31:30.054Z,1017.04
2016-07-03T07:32:30.090Z,1015.28
2016-07-03T07:33:30.124Z,1017.12
2016-07-03T07:34:30.164Z,1017.14
2016-07-03T07:35:30.201Z,1017.14
2016-07-03T07:36:30.235Z,1015.28
2016-07-03T07:37:30.274Z,1015.98
2016-07-03T07:38:30.308Z,1015.28
2016-07-03T07:39:30.347Z,1017.04
2016-07-03T07:40:30.385Z,1016.97
2016-07-03T07:41:30.421Z,1015.72
2016-07-03T07:42:30.459Z,1016.94
2016-07-03T07:43:30.496Z,1016.81
2016-07-03T07:44:30.531Z,1016.8
2016-07-03T07:45:30.567Z,1016.61
2016-07-03T07:46:30.603Z,1015.23
2016-07-03T07:47:30.641Z,1015.2
2016-07-03T07:48:30.678Z,1015.2
2016-07-03T07:49:30.711Z,1016.56
2016-07-03T07:51:30.785Z,1016.45
2016-07-03T07:52:30.823Z,1016.32
2016-07-03T07:53:30.857Z,1015.27
2016-07-03T07:54:30.894Z,1015.65
2016-07-03T07:55:30.928Z,1015.25
2016-07-03T07:56:30.965Z,1016.23
2016-07-03T07:57:30.995Z,1016.14
2016-07-03T07:58:31.035Z,1015.92
2016-07-03T07:59:31.072Z,1015.71
2016-07-03T08:00:31.107Z,1015.65
2016-07-03T08:01:31.140Z,1015.64
2016-07-03T08:02:31.178Z,1015.67
2016-07-03T08:03:31.213Z,1015.45
2016-07-03T08:04:31.248Z,1015.62
2016-07-03T08:05:31.281Z,1015.59
2016-07-03T08:07:31.354Z,1015.57
2016-07-03T08:08:31.389Z,1015.51
2016-07-03T08:09:31.424Z,1015.46
2016-07-03T08:10:31.463Z,1015.75
2016-07-03T08:11:31.495Z,1015.65
2016-07-03T08:12:31.534Z,1015.63
2016-07-03T08:13:31.569Z,1015.26
2016-07-03T08:14:31.606Z,1015.51
2016-07-03T08:15:31.640Z,1015.49
2016-07-03T08:16:31.676Z,1015.45
2016-07-03T08:17:31.715Z,1015.46
2016-07-03T08:18:31.748Z,1015.41
2016-07-03T08:19:31.781Z,1015.41
2016-07-03T08:20:31.815Z,1015.43
2016-07-03T08:21:31.853Z,1015.43
2016-07-03T08:23:31.924Z,1015.54
2016-07-03T08:24:31.959Z,1015.49
2016-07-03T08:25:31.998Z,1015.48
2016-07-03T08:26:32.031Z,1015.48
2016-07-03T08:27:32.067Z,1015.49
2016-07-03T08:28:32.103Z,1015.4
2016-07-03T08:29:32.140Z,1015.48
2016-07-03T08:30:32.171Z,1015.43
2016-07-03T08:31:32.223Z,1015.35
2016-07-03T08:32:32.245Z,1015.31
2016-07-03T08:33:32.282Z,1015.36
2016-07-03T08:34:32.316Z,1015.43
2016-07-03T08:35:32.354Z,1015.31
2016-07-03T08:36:32.390Z,1015.36
2016-07-03T08:37:32.422Z,1015.32
2016-07-03T08:39:32.494Z,1015.33
2016-07-03T08:40:32.535Z,1015.23
2016-07-03T08:41:32.564Z,1015.82
2016-07-03T08:42:32.597Z,1015.18
2016-07-03T08:43:32.637Z,1015.12
2016-07-03T08:44:32.670Z,1015.46
2016-07-03T08:45:32.705Z,1014.96
2016-07-03T08:46:32.745Z,1014.97
2016-07-03T08:47:32.778Z,1015.02
2016-07-03T08:48:32.810Z,1015.42
2016-07-03T08:49:32.846Z,1015.33
2016-07-03T08:50:32.882Z,1015.49
2016-07-03T08:51:32.914Z,1015.14
2016-07-03T08:52:32.952Z,1015.16
2016-07-03T08:54:33.019Z,1015.02
2016-07-03T08:55:33.052Z,1015.39
2016-07-03T08:56:33.086Z,1015.08
2016-07-03T08:57:33.118Z,1014.96
2016-07-03T08:58:33.157Z,1014.93
2016-07-03T08:59:33.194Z,1014.94
2016-07-03T09:00:33.223Z,1014.93
2016-07-03T09:01:33.254Z,1014.88
2016-07-03T09:02:33.290Z,1014.83
2016-07-03T09:03:33.323Z,1014.84
2016-07-03T09:04:33.361Z,1014.84
2016-07-03T09:05:33.390Z,1014.85
2016-07-03T09:06:33.422Z,1014.84
2016-07-03T09:07:33.457Z,1014.84
2016-07-03T09:08:33.492Z,1014.83
2016-07-03T09:09:33.526Z,1014.76
2016-07-03T09:10:33.553Z,1014.8
2016-07-03T09:11:33.589Z,1014.82
2016-07-03T09:12:33.622Z,1014.85
2016-07-03T09:13:33.654Z,1014.8
2016-07-03T09:14:33.688Z,1014.86
2016-07-03T09:15:33.717Z,1014.81
2016-07-03T09:16:33.751Z,1014.83
2016-07-03T09:17:33.782Z,1014.86
2016-07-03T09:18:33.814Z,1014.9
2016-07-03T09:19:33.847Z,1014.88
2016-07-03T09:20:33.877Z,1014.86
2016-07-03T09:21:33.909Z,1014.77
2016-07-03T09:22:33.944Z,1014.84
2016-07-03T09:23:33.976Z,1014.79
2016-07-03T09:24:34.006Z,1014.8
2016-07-03T09:26:34.069Z,1014.71
2016-07-03T09:27:34.117Z,1014.82
2016-07-03T09:28:34.137Z,1014.76
2016-07-03T09:29:34.165Z,1014.72
2016-07-03T09:30:34.198Z,1014.72
2016-07-03T09:31:34.233Z,1014.66
2016-07-03T09:32:34.264Z,1014.69
2016-07-03T09:33:34.310Z,1014.73
2016-07-03T09:34:34.329Z,1014.77
2016-07-03T09:35:34.359Z,1014.73
2016-07-03T09:36:34.394Z,1014.69
2016-07-03T09:37:34.426Z,1014.71
2016-07-03T09:38:34.459Z,1014.72
2016-07-03T09:39:34.488Z,1014.7
2016-07-03T09:40:34.522Z,1014.67
2016-07-03T09:42:34.588Z,1014.62
2016-07-03T09:43:34.618Z,1014.61
2016-07-03T09:44:34.653Z,1014.66
2016-07-03T09:45:34.683Z,1014.63
2016-07-03T09:46:34.716Z,1014.63
2016-07-03T09:47:34.745Z,1014.54
2016-07-03T09:48:34.778Z,1014.55
2016-07-03T09:49:34.812Z,1014.56
2016-07-03T09:50:34.844Z,1014.55
2016-07-03T09:51:34.872Z,1014.58
2016-07-03T09:52:34.904Z,1014.55
2016-07-03T09:53:34.940Z,1014.55
2016-07-03T09:54:34.970Z,1014.54
2016-07-03T09:55:35.002Z,1014.52
2016-07-03T09:56:35.031Z,1014.55
2016-07-03T09:58:35.094Z,1014.57
2016-07-03T09:59:35.127Z,1014.57
2016-07-03T10:00:35.162Z,1014.56
2016-07-03T10:01:35.193Z,1014.55
2016-07-03T10:02:35.225Z,1014.56
2016-07-03T10:03:35.260Z,1014.5
2016-07-03T10:04:35.287Z,1014.5
2016-07-03T10:05:35.317Z,1014.52
2016-07-03T10:06:35.344Z,1014.47
2016-07-03T10:07:35.387Z,1014.54
2016-07-03T10:08:35.413Z,1014.55
2016-07-03T10:09:35.438Z,1014.49
2016-07-03T10:10:35.482Z,1014.52
2016-07-03T10:11:35.518Z,1014.52
2016-07-03T10:12:35.537Z,1014.56
2016-07-03T10:14:35.600Z,1014.46
2016-07-03T10:15:35.632Z,1014.45
2016-07-03T10:16:35.662Z,1014.43
2016-07-03T10:17:35.697Z,1014.47
2016-07-03T10:18:35.729Z,1014.4
2016-07-03T10:19:35.760Z,1014.41
2016-07-03T10:20:35.789Z,1014.43
2016-07-03T10:21:35.819Z,1014.42
2016-07-03T10:22:35.852Z,1014.43
2016-07-03T10:23:35.884Z,1014.32
2016-07-03T10:24:35.915Z,1014.38
2016-07-03T10:25:35.949Z,1014.36
2016-07-03T10:26:35.981Z,1014.33
2016-07-03T10:27:36.014Z,1014.26
2016-07-03T10:29:36.075Z,1014.34
2016-07-03T10:30:36.106Z,1014.29
2016-07-03T10:31:36.140Z,1014.31
2016-07-03T10:32:36.172Z,1014.25
2016-07-03T10:33:36.203Z,1014.24
2016-07-03T10:34:36.234Z,1014.18
2016-07-03T10:35:36.277Z,1014.16
2016-07-03T10:36:36.294Z,1014.21
2016-07-03T10:37:36.324Z,1014.18
2016-07-03T10:38:36.356Z,1014.15
2016-07-03T10:39:36.386Z,1014.14
2016-07-03T10:40:36.420Z,1014.19
2016-07-03T10:41:36.451Z,1014.14
2016-07-03T10:42:36.482Z,1014.1
2016-07-03T10:43:36.511Z,1014.09
2016-07-03T10:44:36.543Z,1014.09
2016-07-03T10:45:36.575Z,1014.04
2016-07-03T10:46:36.604Z,1014.06
2016-07-03T10:47:36.643Z,1014.07
2016-07-03T10:48:36.668Z,1014.04
2016-07-03T10:49:36.696Z,1014.05
2016-07-03T10:50:36.730Z,1014.04
2016-07-03T10:51:36.756Z,1014.07
2016-07-03T10:52:36.788Z,1014.09
2016-07-03T10:53:36.819Z,1014.07
2016-07-03T10:54:36.848Z,1014.12
2016-07-03T10:55:36.881Z,1014.07
2016-07-03T10:56:36.907Z,1014.11
2016-07-03T10:57:36.943Z,1014.09
2016-07-03T10:58:36.969Z,1014.08
2016-07-03T10:59:37.004Z,1014.02
2016-07-03T11:01:37.065Z,1013.99
2016-07-03T11:02:37.093Z,1013.96
2016-07-03T11:03:37.122Z,1013.98
2016-07-03T11:04:37.156Z,1013.9
2016-07-03T11:05:37.189Z,1013.94
2016-07-03T11:06:37.215Z,1014
2016-07-03T11:07:37.245Z,1013.98
2016-07-03T11:08:37.278Z,1013.92
2016-07-03T11:09:37.309Z,1013.91
2016-07-03T11:10:37.336Z,1013.87
2016-07-03T11:11:37.368Z,1013.87
2016-07-03T11:12:37.398Z,1013.81
2016-07-03T11:13:37.432Z,1013.82
2016-07-03T11:14:37.461Z,1013.83
2016-07-03T11:15:37.492Z,1013.82
2016-07-03T11:17:37.551Z,1013.8
2016-07-03T11:18:37.580Z,1013.79
2016-07-03T11:19:37.613Z,1013.72
2016-07-03T11:20:37.641Z,1013.73
2016-07-03T11:21:37.671Z,1013.77
2016-07-03T11:22:37.701Z,1013.76
2016-07-03T11:23:37.731Z,1013.78
2016-07-03T11:24:37.763Z,1013.75
2016-07-03T11:25:37.789Z,1013.74
2016-07-03T11:26:37.823Z,1013.71
2016-07-03T11:27:37.852Z,1013.69
2016-07-03T11:28:37.884Z,1013.61
2016-07-03T11:29:37.911Z,1013.6
2016-07-03T11:30:37.943Z,1013.62
2016-07-03T11:31:37.970Z,1013.59
2016-07-03T11:33:38.031Z,1013.55
2016-07-03T11:34:38.057Z,1013.56
2016-07-03T11:35:38.094Z,1013.57
2016-07-03T11:36:38.125Z,1013.64
2016-07-03T11:37:38.152Z,1013.52
2016-07-03T11:38:38.180Z,1013.45
2016-07-03T11:39:38.210Z,1013.54
2016-07-03T11:40:38.240Z,1013.47
2016-07-03T11:41:38.270Z,1013.4
2016-07-03T11:42:38.302Z,1013.51
2016-07-03T11:43:38.328Z,1013.43
2016-07-03T11:44:38.359Z,1013.42
2016-07-03T11:45:38.392Z,1013.42
2016-07-03T11:46:38.416Z,1013.49
2016-07-03T11:47:38.447Z,1013.45
2016-07-03T11:49:38.506Z,1013.41
2016-07-03T11:50:38.536Z,1013.43
2016-07-03T11:51:38.565Z,1013.36
2016-07-03T11:52:38.597Z,1013.37
2016-07-03T11:53:38.626Z,1013.34
2016-07-03T11:54:38.653Z,1013.38
2016-07-03T11:55:38.686Z,1013.3
2016-07-03T11:56:38.713Z,1013.33
2016-07-03T11:57:38.742Z,1013.36
2016-07-03T11:58:38.771Z,1013.27
2016-07-03T11:59:38.802Z,1013.3
2016-07-03T12:00:38.831Z,1013.33
2016-07-03T12:01:38.862Z,1013.3
2016-07-03T12:02:38.890Z,1013.3
2016-07-03T12:04:38.950Z,1013.36
2016-07-03T12:05:38.981Z,1013.24
2016-07-03T12:06:39.010Z,1013.28
2016-07-03T12:07:39.038Z,1013.34
2016-07-03T12:08:39.070Z,1013.34
2016-07-03T12:09:39.097Z,1013.32
2016-07-03T12:10:39.129Z,1013.32
2016-07-03T12:11:39.157Z,1013.31
2016-07-03T12:12:39.184Z,1013.25
2016-07-03T12:13:39.213Z,1013.28
2016-07-03T12:14:39.243Z,1013.29
2016-07-03T12:15:39.273Z,1013.23
2016-07-03T12:16:39.302Z,1013.33
2016-07-03T12:17:39.333Z,1013.27
2016-07-03T12:18:39.361Z,1013.22
2016-07-03T12:19:39.390Z,1013.28
2016-07-03T12:20:39.421Z,1013.3
2016-07-03T12:21:39.454Z,1013.2
2016-07-03T12:22:39.486Z,1013.25
2016-07-03T12:23:39.506Z,1013.19
2016-07-03T12:24:39.536Z,1013.25
2016-07-03T12:25:39.565Z,1013.21
2016-07-03T12:26:39.597Z,1013.23
2016-07-03T12:27:39.621Z,1013.26
2016-07-03T12:28:39.656Z,1013.18
2016-07-03T12:29:39.684Z,1013.19
2016-07-03T12:30:39.714Z,1013.15
2016-07-03T12:31:39.745Z,1013.17
2016-07-03T12:32:39.775Z,1013.18
2016-07-03T12:33:39.804Z,1013.13
2016-07-03T12:34:39.832Z,1013.21
2016-07-03T12:36:39.893Z,1013.15
2016-07-03T12:37:39.923Z,1013.13
2016-07-03T12:38:39.952Z,1013.16
2016-07-03T12:39:39.979Z,1013.19
2016-07-03T12:40:40.012Z,1013.19
2016-07-03T12:41:40.039Z,1013.1
2016-07-03T12:42:40.070Z,1013.11
2016-07-03T12:43:40.098Z,1013.19
2016-07-03T12:44:40.130Z,1013.17
2016-07-03T12:45:40.159Z,1013.12
2016-07-03T12:46:40.189Z,1013.08
2016-07-03T12:47:40.218Z,1013.05